CheckWX is a tool to help pilots better visualize weather data.  It is not intended as a substitute for an official pre-flight weather briefing.

11:55:42 UTC

KCXW METAR
Cantrell Field Airport
Conway, Arkansas, USA
Current

21 mins ago

KCXW 051135Z AUTO 05004KT 10SM OVC035 12/11 A3008 RMK A01
Observed
Apr-5 @ 11:35 UTC
Wind
  • 050° at 4 KTS
Visibility
Flight Rules
VFR
Cloud Levels
  • Overcast at 3,500' AGL
Temperature
12°C / 54°F
Dewpoint
11°C / 52°F
Humidity
94%
Altimeter
30.08" Hg
Pressure
1018.62 hPa
Previous

41 mins ago

KCXW 051115Z AUTO 03004KT 10SM OVC036 12/11 A3008 RMK A01
Observed
Apr-5 @ 11:15 UTC
Wind
  • 030° at 4 KTS
Visibility
Flight Rules
VFR
Cloud Levels
  • Overcast at 3,600' AGL
Temperature
12°C / 54°F
Dewpoint
11°C / 52°F
Humidity
94%
Altimeter
30.08" Hg
Pressure
1018.62 hPa
Previous

1 hour ago

KCXW 051055Z AUTO 04004KT 10SM OVC037 12/11 A3007 RMK A01
Observed
Apr-5 @ 10:55 UTC
Wind
  • 040° at 4 KTS
Visibility
Flight Rules
VFR
Cloud Levels
  • Overcast at 3,700' AGL
Temperature
12°C / 54°F
Dewpoint
11°C / 52°F
Humidity
94%
Altimeter
30.07" Hg
Pressure
1018.32 hPa